createdAt,value
2017-09-28T00:00:14.187Z,18.73
2017-09-28T00:02:42.614Z,17.80
2017-09-28T00:05:10.323Z,17.83
2017-09-28T00:07:38.760Z,17.47
2017-09-28T00:10:06.463Z,17.10
2017-09-28T00:12:34.907Z,16.93
2017-09-28T00:15:03.392Z,17.27
2017-09-28T00:17:31.077Z,16.90
2017-09-28T00:19:59.547Z,17.07
2017-09-28T00:22:27.268Z,16.70
2017-09-28T00:24:54.976Z,17.00
2017-09-28T00:27:23.440Z,18.03
2017-09-28T00:29:51.104Z,17.30
2017-09-28T00:32:18.879Z,17.00
2017-09-28T00:34:47.409Z,15.80
2017-09-28T00:37:15.152Z,19.13
2017-09-28T00:39:42.884Z,17.73
2017-09-28T00:42:11.405Z,17.90
2017-09-28T00:44:39.116Z,17.43
2017-09-28T00:47:07.704Z,18.60
2017-09-28T00:49:36.192Z,17.17
2017-09-28T00:52:04.755Z,17.70
2017-09-28T00:54:33.200Z,17.60
2017-09-28T00:57:00.947Z,16.10
2017-09-28T00:59:28.648Z,17.90
2017-09-28T01:01:56.382Z,18.07
2017-09-28T01:04:24.060Z,17.87
2017-09-28T01:06:51.775Z,16.53
2017-09-28T01:09:19.501Z,16.83
2017-09-28T01:11:47.975Z,17.70
2017-09-28T01:14:16.443Z,17.60
2017-09-28T01:16:44.192Z,17.00
2017-09-28T01:19:11.940Z,17.17
2017-09-28T01:21:39.751Z,16.87
2017-09-28T01:24:08.260Z,16.63
2017-09-28T01:26:36.064Z,18.60
2017-09-28T01:29:03.798Z,17.83
2017-09-28T01:31:31.552Z,17.87
2017-09-28T01:33:59.342Z,17.23
2017-09-28T01:36:27.115Z,17.07
2017-09-28T01:38:54.863Z,18.40
2017-09-28T01:41:22.613Z,18.43
2017-09-28T01:43:50.320Z,17.07
2017-09-28T01:46:18.813Z,18.60
2017-09-28T01:48:46.591Z,17.30
2017-09-28T01:51:14.265Z,18.93
2017-09-28T01:53:42.023Z,17.27
2017-09-28T01:56:09.731Z,18.30
2017-09-28T01:58:38.232Z,17.10
2017-09-28T02:01:05.947Z,17.70
2017-09-28T02:03:33.663Z,19.70
2017-09-28T02:06:01.363Z,19.43
2017-09-28T02:08:29.140Z,18.10
2017-09-28T02:10:56.856Z,17.60
2017-09-28T02:13:24.592Z,19.07
2017-09-28T02:15:52.304Z,17.93
2017-09-28T02:18:20.035Z,18.30
2017-09-28T02:20:47.722Z,18.13
2017-09-28T02:23:15.463Z,18.47
2017-09-28T02:25:43.199Z,18.77
2017-09-28T02:28:10.975Z,18.73
2017-09-28T02:30:38.664Z,18.70
2017-09-28T02:33:06.388Z,18.00
2017-09-28T02:35:34.056Z,19.57
2017-09-28T02:38:01.817Z,19.27
2017-09-28T02:40:29.508Z,20.40
2017-09-28T02:42:57.236Z,19.40
2017-09-28T02:45:24.909Z,19.67
2017-09-28T02:47:52.620Z,18.23
2017-09-28T02:50:21.052Z,18.70
2017-09-28T02:52:48.777Z,18.37
2017-09-28T02:55:16.435Z,20.10
2017-09-28T02:57:44.107Z,17.47
2017-09-28T03:00:11.909Z,17.90
2017-09-28T03:02:39.559Z,19.23
2017-09-28T03:05:07.268Z,18.67
2017-09-28T03:07:35.698Z,17.60
2017-09-28T03:10:03.447Z,19.07
2017-09-28T03:12:31.123Z,17.80
2017-09-28T03:14:58.836Z,18.90
2017-09-28T03:17:26.497Z,19.10
2017-09-28T03:19:54.248Z,17.30
2017-09-28T03:22:22.672Z,18.13
2017-09-28T03:24:50.385Z,17.20
2017-09-28T03:27:18.825Z,17.93
2017-09-28T03:29:46.536Z,18.30
2017-09-28T03:32:14.215Z,19.70
2017-09-28T03:34:41.924Z,18.93
2017-09-28T03:37:09.591Z,17.73
2017-09-28T03:39:38.063Z,18.97
2017-09-28T03:42:06.528Z,18.10
2017-09-28T03:44:34.235Z,19.50
2017-09-28T03:47:01.908Z,19.10
2017-09-28T03:49:29.627Z,18.87
2017-09-28T03:51:58.060Z,20.07
2017-09-28T03:54:25.771Z,18.97
2017-09-28T03:56:54.211Z,17.63
2017-09-28T03:59:21.979Z,19.87
2017-09-28T04:01:49.644Z,18.90
2017-09-28T04:04:17.327Z,18.97
2017-09-28T04:06:45.796Z,17.80
2017-09-28T04:09:13.467Z,17.37
2017-09-28T04:11:41.963Z,17.60
2017-09-28T04:14:09.681Z,17.13
2017-09-28T04:16:37.395Z,15.53
2017-09-28T04:19:05.056Z,18.07
2017-09-28T04:21:32.762Z,16.63
2017-09-28T04:24:00.472Z,16.13
2017-09-28T04:26:28.205Z,17.63
2017-09-28T04:28:56.663Z,18.23
2017-09-28T04:31:24.408Z,17.20
2017-09-28T04:33:52.103Z,19.57
2017-09-28T04:36:20.588Z,24.23
2017-09-28T04:38:49.024Z,22.50
2017-09-28T04:41:16.756Z,22.10
2017-09-28T04:43:44.427Z,18.80
2017-09-28T04:46:12.140Z,20.20
2017-09-28T04:48:40.571Z,19.23
2017-09-28T04:51:08.275Z,19.03
2017-09-28T04:53:36.719Z,18.97
2017-09-28T04:56:04.448Z,21.53
2017-09-28T04:58:32.115Z,19.00
2017-09-28T05:00:59.775Z,18.73
2017-09-28T05:03:27.479Z,18.53
2017-09-28T05:05:55.155Z,17.03
2017-09-28T05:08:23.632Z,17.70
2017-09-28T05:10:52.074Z,17.53
2017-09-28T05:13:19.788Z,16.83
2017-09-28T05:15:47.452Z,19.43
2017-09-28T05:18:15.299Z,17.40
2017-09-28T05:20:43.742Z,19.40
2017-09-28T05:23:11.459Z,19.90
2017-09-28T05:25:39.194Z,25.33
2017-09-28T05:28:06.895Z,21.10
2017-09-28T05:30:34.579Z,19.57
2017-09-28T05:33:02.324Z,18.70
2017-09-28T05:35:30.015Z,20.27
2017-09-28T05:37:57.741Z,20.80
2017-09-28T05:40:26.548Z,21.23
2017-09-28T05:42:54.288Z,21.70
2017-09-28T05:45:21.955Z,23.83
2017-09-28T05:47:49.707Z,24.03
2017-09-28T05:50:17.392Z,23.17
2017-09-28T05:52:45.105Z,18.20
2017-09-28T05:55:12.779Z,16.80
2017-09-28T05:57:40.460Z,18.60
2017-09-28T06:00:08.237Z,18.30
2017-09-28T06:02:35.921Z,17.10
2017-09-28T06:05:04.400Z,18.17
2017-09-28T06:07:32.837Z,21.03
2017-09-28T06:10:00.536Z,18.57
2017-09-28T06:12:28.963Z,22.30
2017-09-28T06:14:57.440Z,19.13
2017-09-28T06:17:25.107Z,16.87
2017-09-28T06:19:52.820Z,17.97
2017-09-28T06:22:21.256Z,17.93
2017-09-28T06:24:48.972Z,19.17
2017-09-28T06:27:16.652Z,16.77
2017-09-28T06:29:44.382Z,17.03
2017-09-28T06:32:12.815Z,18.83
2017-09-28T06:34:40.531Z,18.80
2017-09-28T06:37:08.224Z,18.77
2017-09-28T06:39:35.947Z,17.10
2017-09-28T06:42:03.627Z,18.10
2017-09-28T06:44:31.358Z,17.70
2017-09-28T06:46:59.816Z,17.30
2017-09-28T06:49:27.540Z,18.50
2017-09-28T06:51:55.215Z,18.70
2017-09-28T06:54:22.962Z,18.20
2017-09-28T06:56:50.622Z,19.67
2017-09-28T06:59:18.336Z,18.40
2017-09-28T07:01:46.996Z,18.30
2017-09-28T07:04:14.668Z,19.03
2017-09-28T07:06:42.379Z,20.10
2017-09-28T07:09:10.060Z,18.00
2017-09-28T07:11:37.787Z,17.40
2017-09-28T07:14:05.515Z,19.43
2017-09-28T07:16:33.994Z,17.80
2017-09-28T07:19:02.432Z,18.20
2017-09-28T07:21:30.154Z,18.27
2017-09-28T07:23:57.812Z,18.50
2017-09-28T07:26:25.520Z,17.20
2017-09-28T07:28:53.201Z,18.77
2017-09-28T07:31:21.019Z,18.37
2017-09-28T07:33:48.736Z,16.53
2017-09-28T07:36:17.212Z,20.97
2017-09-28T07:38:45.643Z,19.23
2017-09-28T07:41:13.354Z,17.73
2017-09-28T07:43:41.804Z,18.67
2017-09-28T07:46:09.524Z,18.27
2017-09-28T07:48:37.193Z,19.40
2017-09-28T07:51:04.909Z,20.30
2017-09-28T07:53:33.350Z,18.70
2017-09-28T07:56:01.054Z,17.93
2017-09-28T07:58:29.497Z,20.40
2017-09-28T08:00:57.219Z,18.60
2017-09-28T08:03:24.887Z,19.70
2017-09-28T08:05:52.574Z,20.03
2017-09-28T08:08:20.290Z,18.80
2017-09-28T08:10:47.991Z,21.80
2017-09-28T08:13:15.722Z,19.20
2017-09-28T08:15:43.419Z,19.43
2017-09-28T08:18:11.132Z,19.30
2017-09-28T08:20:38.814Z,18.67
2017-09-28T08:23:06.552Z,18.67
2017-09-28T08:25:34.251Z,21.23
2017-09-28T08:28:02.071Z,20.30
2017-09-28T08:30:29.748Z,19.70
2017-09-28T08:32:57.487Z,20.33
2017-09-28T08:35:25.168Z,20.03
2017-09-28T08:37:52.888Z,18.57
2017-09-28T08:40:21.315Z,21.30
2017-09-28T08:42:49.027Z,20.10
2017-09-28T08:45:17.483Z,19.50
2017-09-28T08:47:45.208Z,20.23
2017-09-28T08:50:12.871Z,19.10
2017-09-28T08:52:40.585Z,19.07
2017-09-28T08:55:09.015Z,19.93
2017-09-28T08:57:36.765Z,18.27
2017-09-28T09:00:04.536Z,19.43
2017-09-28T09:02:32.265Z,21.00
2017-09-28T09:04:59.928Z,20.80
2017-09-28T09:07:27.609Z,20.70
2017-09-28T09:09:55.323Z,19.03
2017-09-28T09:12:23.761Z,20.60
2017-09-28T09:14:51.476Z,19.00
2017-09-28T09:17:19.912Z,21.70
2017-09-28T09:19:47.622Z,20.03
2017-09-28T09:22:15.288Z,21.77
2017-09-28T09:24:42.996Z,20.97
2017-09-28T09:27:10.667Z,21.73
2017-09-28T09:29:38.389Z,21.40
2017-09-28T09:32:06.105Z,21.30
2017-09-28T09:34:34.581Z,20.70
2017-09-28T09:37:03.007Z,21.30
2017-09-28T09:39:30.719Z,23.50
2017-09-28T09:41:59.151Z,22.87
2017-09-28T09:44:26.868Z,22.63
2017-09-28T09:46:55.305Z,21.70
2017-09-28T09:49:23.020Z,20.60
2017-09-28T09:51:50.685Z,20.53
2017-09-28T09:54:18.395Z,19.83
2017-09-28T09:56:46.050Z,20.70
2017-09-28T09:59:13.755Z,19.63
2017-09-28T10:01:41.460Z,19.07
2017-09-28T10:04:09.160Z,18.87
2017-09-28T10:06:42.644Z,18.90
2017-09-28T10:09:12.316Z,20.03
2017-09-28T10:11:45.362Z,19.53
2017-09-28T10:14:24.408Z,19.40
2017-09-28T10:16:52.081Z,20.03
2017-09-28T10:19:19.835Z,18.53
2017-09-28T10:21:47.532Z,20.40
2017-09-28T10:24:15.264Z,21.30
2017-09-28T10:26:42.923Z,20.80
2017-09-28T10:29:10.628Z,21.70
2017-09-28T10:31:39.055Z,21.07
2017-09-28T10:34:06.797Z,21.87
2017-09-28T10:36:34.467Z,20.13
2017-09-28T10:39:02.127Z,21.60
2017-09-28T10:41:29.845Z,19.43
2017-09-28T10:43:58.285Z,19.97
2017-09-28T10:46:25.995Z,20.00
2017-09-28T10:48:53.663Z,22.10
2017-09-28T10:51:21.408Z,21.80
2017-09-28T10:53:49.848Z,20.87
2017-09-28T10:56:17.551Z,22.07
2017-09-28T10:58:45.980Z,22.27
2017-09-28T11:01:13.688Z,22.17
2017-09-28T11:03:42.120Z,24.03
2017-09-28T11:06:09.840Z,23.60
2017-09-28T11:08:37.516Z,24.63
2017-09-28T11:11:05.219Z,24.47
2017-09-28T11:13:32.893Z,22.43
2017-09-28T11:16:01.371Z,21.07
2017-09-28T11:18:29.808Z,22.53
2017-09-28T11:20:57.516Z,21.60
2017-09-28T11:23:25.954Z,20.80
2017-09-28T11:25:53.658Z,20.47
2017-09-28T11:28:22.089Z,20.63
2017-09-28T11:30:49.807Z,19.30
2017-09-28T11:33:17.471Z,22.27
2017-09-28T11:35:45.146Z,20.47
2017-09-28T11:38:12.855Z,20.20
2017-09-28T11:40:40.515Z,21.20
2017-09-28T11:43:08.222Z,20.00
2017-09-28T11:45:35.889Z,19.53
2017-09-28T11:48:03.604Z,20.13
2017-09-28T11:50:32.031Z,19.00
2017-09-28T11:52:59.743Z,19.80
2017-09-28T11:55:28.189Z,20.97
2017-09-28T11:57:55.892Z,21.80
2017-09-28T12:00:24.327Z,20.70
2017-09-28T12:02:52.141Z,21.27
2017-09-28T12:05:19.803Z,26.37
2017-09-28T12:07:47.512Z,22.67
2017-09-28T12:10:15.197Z,22.17
2017-09-28T12:12:43.677Z,19.63
2017-09-28T12:15:12.129Z,19.97
2017-09-28T12:20:22.282Z,20.27
2017-09-28T12:22:49.996Z,20.83
2017-09-28T12:25:17.667Z,20.07
2017-09-28T12:27:45.339Z,20.90
2017-09-28T12:30:13.051Z,18.57
2017-09-28T12:32:40.716Z,20.87
2017-09-28T12:35:09.196Z,19.90
2017-09-28T12:37:37.634Z,20.93
2017-09-28T12:40:05.349Z,19.33
2017-09-28T12:42:33.796Z,19.30
2017-09-28T12:45:01.599Z,19.77
2017-09-28T12:47:29.273Z,18.77
2017-09-28T12:49:57.011Z,19.67
2017-09-28T12:52:25.437Z,19.90
2017-09-28T12:54:53.145Z,20.23
2017-09-28T12:57:21.584Z,19.00
2017-09-28T12:59:49.313Z,21.03
2017-09-28T13:02:16.995Z,19.60
2017-09-28T13:04:44.712Z,18.70
2017-09-28T13:07:12.380Z,19.10
2017-09-28T13:09:40.143Z,17.63
2017-09-28T13:12:07.804Z,19.30
2017-09-28T13:14:35.512Z,16.80
2017-09-28T13:17:03.187Z,17.37
2017-09-28T13:19:30.900Z,17.40
2017-09-28T13:21:58.580Z,19.10
2017-09-28T13:24:26.350Z,18.40
2017-09-28T13:26:54.032Z,18.40
2017-09-28T13:29:22.484Z,18.13
2017-09-28T13:31:50.206Z,19.20
2017-09-28T13:34:17.870Z,18.43
2017-09-28T13:36:45.578Z,18.47
2017-09-28T13:39:13.248Z,17.67
2017-09-28T13:41:41.728Z,17.37
2017-09-28T13:44:10.171Z,18.30
2017-09-28T13:46:37.876Z,16.60
2017-09-28T13:49:06.310Z,17.60
2017-09-28T13:51:34.020Z,16.33
2017-09-28T13:54:02.465Z,16.17
2017-09-28T13:56:30.172Z,17.87
2017-09-28T13:58:57.835Z,15.60
2017-09-28T14:01:25.544Z,15.80
2017-09-28T14:03:53.213Z,16.20
2017-09-28T14:06:20.924Z,16.30
2017-09-28T14:08:48.584Z,15.57
2017-09-28T14:11:16.295Z,16.17
2017-09-28T14:13:43.962Z,15.97
2017-09-28T14:16:12.455Z,15.33
2017-09-28T14:18:40.119Z,14.77
2017-09-28T14:21:07.864Z,16.17
2017-09-28T14:23:36.303Z,13.70
2017-09-28T14:26:04.015Z,15.10
2017-09-28T14:28:32.448Z,14.27
2017-09-28T14:31:00.217Z,14.10
2017-09-28T14:33:27.887Z,13.17
2017-09-28T14:35:55.552Z,14.37
2017-09-28T14:38:24.031Z,14.20
2017-09-28T14:40:52.464Z,14.33
2017-09-28T14:43:20.171Z,15.27
2017-09-28T14:45:48.607Z,14.03
2017-09-28T14:48:16.331Z,22.27
2017-09-28T14:50:43.998Z,21.03
2017-09-28T14:53:11.711Z,13.40
2017-09-28T14:55:39.384Z,14.73
2017-09-28T14:58:07.872Z,17.10
2017-09-28T15:00:36.310Z,13.23
2017-09-28T15:03:04.027Z,14.30
2017-09-28T15:05:31.708Z,12.10
2017-09-28T15:07:59.419Z,11.57
2017-09-28T15:10:27.096Z,12.33
2017-09-28T15:12:55.567Z,12.80
2017-09-28T15:15:24.045Z,10.90
2017-09-28T15:17:52.586Z,11.00
2017-09-28T15:20:20.260Z,11.30
2017-09-28T15:22:47.966Z,10.30
2017-09-28T15:25:15.638Z,13.97
2017-09-28T15:27:43.351Z,14.50
2017-09-28T15:30:11.024Z,18.40
2017-09-28T15:32:39.500Z,13.50
2017-09-28T15:35:07.932Z,11.27
2017-09-28T15:37:35.668Z,11.00
2017-09-28T15:40:03.389Z,10.60
2017-09-28T15:42:31.060Z,10.33
2017-09-28T15:44:59.545Z,10.00
2017-09-28T15:47:28.014Z,10.37
2017-09-28T15:49:56.495Z,10.70
2017-09-28T15:52:24.928Z,9.90
2017-09-28T15:54:52.636Z,9.40
2017-09-28T15:57:21.067Z,9.40
2017-09-28T15:59:48.789Z,10.43
2017-09-28T16:02:16.448Z,9.07
2017-09-28T16:04:44.157Z,9.80
2017-09-28T16:07:11.820Z,8.20
2017-09-28T16:09:39.540Z,8.47
2017-09-28T16:12:07.212Z,8.70
2017-09-28T16:14:34.924Z,8.27
2017-09-28T16:17:02.589Z,9.63
2017-09-28T16:19:31.072Z,9.40
2017-09-28T16:21:59.509Z,9.40
2017-09-28T16:24:27.232Z,10.13
2017-09-28T16:26:54.900Z,10.27
2017-09-28T16:29:22.631Z,9.57
2017-09-28T16:31:51.067Z,9.13
2017-09-28T16:34:18.778Z,9.77
2017-09-28T16:36:46.447Z,9.57
2017-09-28T16:39:14.161Z,9.60
2017-09-28T16:41:41.824Z,10.80
2017-09-28T16:44:09.536Z,11.40
2017-09-28T16:46:37.247Z,12.20
2017-09-28T16:49:04.920Z,11.80
2017-09-28T16:51:33.399Z,11.23
2017-09-28T16:54:01.838Z,11.03
2017-09-28T16:56:29.547Z,12.20
2017-09-28T16:58:57.976Z,16.00
2017-09-28T17:01:25.684Z,13.80
2017-09-28T17:03:54.118Z,12.77
2017-09-28T17:06:21.829Z,10.57
2017-09-28T17:08:50.269Z,10.10
2017-09-28T17:11:17.976Z,9.97
2017-09-28T17:13:45.654Z,11.00
2017-09-28T17:16:13.359Z,11.80
2017-09-28T17:18:41.032Z,10.53
2017-09-28T17:21:09.515Z,11.13
2017-09-28T17:23:37.951Z,11.10
2017-09-28T17:26:05.712Z,10.03
2017-09-28T17:28:33.376Z,9.70
2017-09-28T17:31:01.080Z,10.67
2017-09-28T17:33:29.517Z,10.43
2017-09-28T17:35:57.232Z,10.27
2017-09-28T17:38:24.907Z,11.03
2017-09-28T17:40:52.628Z,10.80
2017-09-28T17:43:21.095Z,15.20
2017-09-28T17:45:48.841Z,12.03
2017-09-28T17:48:16.524Z,11.80
2017-09-28T17:50:44.959Z,12.97
2017-09-28T17:53:12.669Z,11.20
2017-09-28T17:55:41.118Z,10.60
2017-09-28T17:58:08.836Z,11.60
2017-09-28T18:00:36.512Z,12.80
2017-09-28T18:03:04.234Z,14.70
2017-09-28T18:05:32.667Z,21.00
2017-09-28T18:08:00.371Z,12.70
2017-09-28T18:10:28.800Z,9.67
2017-09-28T18:12:56.554Z,10.33
2017-09-28T18:15:24.224Z,9.93
2017-09-28T18:17:52.838Z,10.53
2017-09-28T18:20:21.263Z,9.50
2017-09-28T18:22:48.969Z,9.80
2017-09-28T18:25:16.637Z,10.70
2017-09-28T18:27:45.112Z,11.40
2017-09-28T18:30:13.584Z,10.90
2017-09-28T18:32:41.343Z,10.83
2017-09-28T18:35:09.011Z,10.50
2017-09-28T18:37:37.491Z,11.67
2017-09-28T18:40:05.934Z,12.37
2017-09-28T18:42:33.647Z,11.83
2017-09-28T18:45:01.315Z,13.00
2017-09-28T18:47:29.029Z,12.57
2017-09-28T18:49:56.695Z,12.77
2017-09-28T18:52:24.418Z,13.97
2017-09-28T18:54:52.080Z,13.70
2017-09-28T18:57:19.744Z,13.30
2017-09-28T18:59:47.456Z,12.97
2017-09-28T19:02:15.898Z,14.77
2017-09-28T19:04:43.658Z,16.10
2017-09-28T19:07:11.375Z,21.97
2017-09-28T19:09:39.105Z,14.63
2017-09-28T19:12:06.772Z,14.40
2017-09-28T19:14:35.244Z,14.67
2017-09-28T19:17:03.684Z,14.03
2017-09-28T19:19:31.568Z,13.57
2017-09-28T19:21:59.249Z,24.00
2017-09-28T19:24:27.748Z,25.20
2017-09-28T19:26:55.422Z,24.13
2017-09-28T19:29:23.166Z,16.27
2017-09-28T19:31:50.900Z,18.13
2017-09-28T19:34:18.651Z,13.93
2017-09-28T19:36:46.360Z,13.00
2017-09-28T19:39:14.996Z,14.60
2017-09-28T19:41:42.660Z,13.87
2017-09-28T19:44:10.375Z,13.23
2017-09-28T19:46:38.068Z,12.03
2017-09-28T19:49:05.822Z,12.87
2017-09-28T19:51:33.502Z,11.63
2017-09-28T19:54:01.255Z,13.93
2017-09-28T19:56:28.982Z,13.53
2017-09-28T19:58:56.738Z,12.70
2017-09-28T20:01:24.408Z,14.73
2017-09-28T20:03:52.087Z,15.70
2017-09-28T20:06:19.809Z,14.13
2017-09-28T20:08:47.475Z,14.17
2017-09-28T20:11:15.184Z,15.47
2017-09-28T20:13:42.889Z,16.20
2017-09-28T20:16:10.599Z,14.87
2017-09-28T20:18:38.269Z,15.37
2017-09-28T20:21:06.038Z,16.30
2017-09-28T20:23:34.517Z,13.73
2017-09-28T20:26:02.991Z,12.60
2017-09-28T20:28:30.656Z,12.77
2017-09-28T20:30:59.142Z,12.67
2017-09-28T20:33:27.577Z,13.27
2017-09-28T20:35:55.292Z,14.13
2017-09-28T20:38:22.964Z,15.07
2017-09-28T20:40:50.700Z,13.70
2017-09-28T20:43:19.141Z,15.53
2017-09-28T20:45:46.863Z,15.53
2017-09-28T20:48:14.569Z,16.60
2017-09-28T20:50:42.325Z,16.40
2017-09-28T20:53:10.088Z,15.97
2017-09-28T20:55:37.834Z,16.93
2017-09-28T20:58:05.510Z,16.60
2017-09-28T21:00:33.249Z,16.43
2017-09-28T21:03:00.924Z,17.40
2017-09-28T21:05:28.599Z,16.53
2017-09-28T21:07:56.309Z,15.90
2017-09-28T21:10:23.976Z,16.67
2017-09-28T21:12:51.691Z,16.23
2017-09-28T21:15:19.355Z,15.77
2017-09-28T21:17:47.835Z,17.67
2017-09-28T21:20:16.282Z,17.80
2017-09-28T21:22:44.007Z,16.90
2017-09-28T21:25:11.675Z,18.33
2017-09-28T21:27:39.384Z,19.30
2017-09-28T21:30:07.077Z,17.57
2017-09-28T21:32:34.787Z,18.27
2017-09-28T21:35:02.517Z,16.50
2017-09-28T21:37:30.240Z,18.87
2017-09-28T21:39:58.717Z,16.60
2017-09-28T21:42:27.234Z,16.77
2017-09-28T21:44:54.926Z,17.77
2017-09-28T21:47:22.644Z,17.90
2017-09-28T21:49:50.311Z,16.80
2017-09-28T21:52:18.071Z,14.90
2017-09-28T21:54:45.738Z,16.10
2017-09-28T21:57:13.453Z,17.03
2017-09-28T21:59:41.933Z,16.03
2017-09-28T22:02:10.418Z,16.37
2017-09-28T22:04:38.854Z,16.03
2017-09-28T22:07:06.841Z,16.20
2017-09-28T22:09:34.525Z,17.70
2017-09-28T22:12:02.199Z,17.60
2017-09-28T22:14:29.916Z,17.23
2017-09-28T22:16:57.590Z,18.57
2017-09-28T22:19:26.072Z,17.80
2017-09-28T22:21:54.543Z,16.27
2017-09-28T22:24:22.253Z,15.60
2017-09-28T22:26:49.916Z,14.63
2017-09-28T22:29:17.628Z,15.00
2017-09-28T22:31:46.065Z,15.73
2017-09-28T22:34:13.793Z,15.53
2017-09-28T22:36:41.463Z,14.70
2017-09-28T22:39:09.188Z,16.03
2017-09-28T22:41:37.626Z,15.87
2017-09-28T22:44:05.338Z,15.67
2017-09-28T22:46:33.772Z,15.90
2017-09-28T22:49:01.508Z,17.80
2017-09-28T22:51:29.172Z,18.37
2017-09-28T22:53:56.898Z,17.80
2017-09-28T22:56:25.357Z,17.07
2017-09-28T22:58:53.074Z,15.87
2017-09-28T23:01:20.790Z,15.63
2017-09-28T23:03:49.258Z,15.47
2017-09-28T23:06:16.988Z,15.37
2017-09-28T23:08:44.698Z,14.90
2017-09-28T23:11:12.393Z,14.97
2017-09-28T23:13:40.124Z,16.17
2017-09-28T23:16:07.820Z,15.53
2017-09-28T23:18:35.493Z,16.27
2017-09-28T23:21:03.215Z,15.97
2017-09-28T23:23:30.885Z,16.60
2017-09-28T23:25:58.685Z,15.53
2017-09-28T23:28:26.398Z,15.37
2017-09-28T23:30:54.108Z,17.00
2017-09-28T23:33:21.855Z,17.57
2017-09-28T23:35:49.567Z,16.90
2017-09-28T23:38:17.253Z,16.60
2017-09-28T23:40:44.965Z,15.43
2017-09-28T23:43:12.665Z,16.10
2017-09-28T23:45:40.388Z,16.10
2017-09-28T23:48:08.832Z,17.47
2017-09-28T23:50:36.549Z,17.00
2017-09-28T23:53:04.232Z,15.50
2017-09-28T23:55:32.020Z,15.37
2017-09-28T23:58:01.209Z,16.27
